Time;durP1;ratioP1;P1;durP2;ratioP2;P2;SDS_P1;SDS_P2;PMS_P1;PMS_P2;Temp;Humidity;BMP_temperature;BMP_pressure;BME280_temperature;BME280_humidity;BME280_pressure;Samples;Min_cycle;Max_cycle;Signal;HPM_P1;HPM_P2
2021/03/21 00:00:25;;;;;;;20.80;12.15;;;12.00;60.20;;;;;;5073914;28;20041;-69
2021/03/21 00:02:53;;;;;;;23.95;12.73;;;;;;;;;;5056255;28;20044;-69
2021/03/21 00:05:20;;;;;;;23.92;13.52;;;;;;;;;;5058306;28;20032;-70
2021/03/21 00:07:58;;;;;;;26.23;13.02;;;12.10;60.00;;;;;;5093930;28;20066;-70
2021/03/21 00:10:26;;;;;;;23.67;12.88;;;12.00;60.00;;;;;;5073379;28;20056;-70
2021/03/21 00:12:54;;;;;;;22.58;12.20;;;12.20;59.90;;;;;;5065837;28;20117;-68
2021/03/21 00:15:22;;;;;;;23.35;12.98;;;12.00;59.80;;;;;;5075520;28;20044;-68
2021/03/21 00:17:49;;;;;;;20.00;12.00;;;;;;;;;;5075568;28;20048;-69
2021/03/21 00:20:17;;;;;;;21.83;11.98;;;12.00;60.00;;;;;;5093416;28;20402;-69
2021/03/21 00:22:45;;;;;;;23.08;12.18;;;;;;;;;;5042427;28;20059;-69
2021/03/21 00:25:16;;;;;;;19.08;11.02;;;12.00;60.00;;;;;;5062890;28;20044;-69
2021/03/21 00:27:43;;;;;;;22.35;11.60;;;;;;;;;;5072606;28;20045;-70
2021/03/21 00:30:14;;;;;;;22.40;11.45;;;11.90;60.00;;;;;;5082372;28;20040;-69
2021/03/21 00:32:41;;;;;;;20.00;11.00;;;;;;;;;;5086532;28;20414;-67
2021/03/21 00:35:09;;;;;;;20.67;11.07;;;;;;;;;;5065270;28;20071;-70
2021/03/21 00:37:38;;;;;;;20.40;11.25;;;;;;;;;;5060439;28;20056;-69
2021/03/21 00:40:08;;;;;;;21.17;12.02;;;11.90;60.00;;;;;;5072817;28;20044;-69
2021/03/21 00:42:35;;;;;;;19.73;10.68;;;;;;;;;;5054667;28;20445;-69
2021/03/21 00:45:05;;;;;;;18.50;10.27;;;11.90;59.90;;;;;;5060607;28;20052;-71
2021/03/21 00:47:32;;;;;;;20.75;11.45;;;;;;;;;;5070989;28;20071;-71
2021/03/21 00:49:59;;;;;;;21.13;11.23;;;;;;;;;;5092362;28;20046;-70
2021/03/21 00:52:26;;;;;;;25.38;12.27;;;;;;;;;;5074683;28;20059;-70
2021/03/21 00:54:53;;;;;;;21.95;12.00;;;;;;;;;;5038619;28;20044;-70
2021/03/21 00:57:29;;;;;;;26.00;12.77;;;;;;;;;;5054136;28;20040;-70
2021/03/21 00:59:56;;;;;;;20.75;12.02;;;;;;;;;;5034269;28;20107;-70
2021/03/21 01:02:23;;;;;;;23.50;11.60;;;;;;;;;;5072312;28;20095;-70
2021/03/21 01:04:51;;;;;;;20.13;12.30;;;;;;;;;;5050632;28;20487;-69
2021/03/21 01:07:18;;;;;;;22.33;12.57;;;;;;;;;;5057475;28;20052;-69
2021/03/21 01:09:45;;;;;;;23.67;12.00;;;;;;;;;;5092049;28;20032;-70
2021/03/21 01:12:12;;;;;;;24.17;12.60;;;;;;;;;;5073501;28;20048;-71
2021/03/21 01:14:39;;;;;;;21.30;11.68;;;;;;;;;;5091584;28;20054;-70
2021/03/21 01:17:06;;;;;;;23.50;11.73;;;;;;;;;;5074123;28;20035;-69
2021/03/21 01:19:33;;;;;;;23.45;12.57;;;;;;;;;;5092114;28;20048;-71
2021/03/21 01:22:00;;;;;;;17.15;10.52;;;;;;;;;;5082949;28;20067;-70
2021/03/21 01:24:27;;;;;;;19.15;9.75;;;;;;;;;;5049510;28;20101;-71
2021/03/21 01:26:54;;;;;;;17.20;9.60;;;;;;;;;;5053695;28;20400;-71
2021/03/21 01:29:21;;;;;;;14.85;8.65;;;;;;;;;;5048786;28;20049;-69
2021/03/21 01:31:49;;;;;;;14.35;7.93;;;;;;;;;;5044634;28;20064;-71
2021/03/21 01:34:17;;;;;;;12.27;7.72;;;;;;;;;;5089118;28;20486;-70
2021/03/21 01:36:43;;;;;;;;;;;11.60;61.60;;;;;;5072475;28;20060;-70
2021/03/21 01:39:21;;;;;;;10.93;6.50;;;11.50;61.50;;;;;;5066795;28;19990;-70
2021/03/21 01:41:56;;;;;;;11.90;6.75;;;11.40;61.60;;;;;;5071543;28;20090;-70
2021/03/21 01:44:24;;;;;;;11.15;6.30;;;;;;;;;;5034385;28;20087;-72
2021/03/21 01:46:53;;;;;;;12.43;6.63;;;11.30;61.90;;;;;;5091549;28;20394;-71
2021/03/21 01:49:43;;;;;;;10.95;6.63;;;11.40;61.80;;;;;;5091703;28;20036;-70
2021/03/21 01:52:36;;;;;;;15.27;6.93;;;11.40;61.80;;;;;;5057433;28;20129;-71
2021/03/21 01:55:08;;;;;;;13.50;7.78;;;11.40;61.90;;;;;;5071420;28;20079;-71
2021/03/21 01:57:35;;;;;;;13.77;7.75;;;;;;;;;;5036720;28;20102;-73
2021/03/21 02:00:05;;;;;;;18.88;9.00;;;11.30;62.30;;;;;;5054972;28;20041;-68
2021/03/21 02:02:32;;;;;;;19.48;10.07;;;;;;;;;;5073384;28;20455;-69
2021/03/21 02:05:00;;;;;;;21.20;11.23;;;;;;;;;;5091249;28;20394;-69
2021/03/21 02:08:02;;;;;;;23.10;11.15;;;11.30;62.70;;;;;;5073860;28;20056;-68
2021/03/21 02:11:03;;;;;;;21.75;11.70;;;11.30;62.80;;;;;;5073708;28;20411;-68
2021/03/21 02:13:57;;;;;;;25.13;13.00;;;11.10;63.20;;;;;;5012911;28;20141;-68
2021/03/21 02:16:41;;;;;;;24.52;12.00;;;11.20;63.10;;;;;;5013213;28;20069;-68
2021/03/21 02:19:27;;;;;;;24.13;12.43;;;11.20;63.00;;;;;;5012709;28;20057;-68
2021/03/21 02:21:59;;;;;;;25.48;12.52;;;11.20;63.10;;;;;;5010896;28;20041;-69
2021/03/21 02:24:26;;;;;;;23.63;13.25;;;;;;;;;;5016288;28;20112;-69
2021/03/21 02:26:53;;;;;;;27.38;13.48;;;;;;;;;;5012827;28;20049;-67
2021/03/21 02:29:37;;;;;;;24.60;12.35;;;11.30;63.00;;;;;;5013005;28;20611;-69
2021/03/21 02:32:48;;;;;;;28.83;13.38;;;11.40;62.60;;;;;;5029642;28;20061;-68
2021/03/21 02:35:26;;;;;;;26.08;14.40;;;11.40;62.60;;;;;;4957623;28;20572;-68
2021/03/21 02:38:16;;;;;;;30.92;14.45;;;11.30;63.20;;;;;;4973254;28;20058;-69
2021/03/21 02:40:50;;;;;;;31.80;16.33;;;11.00;63.60;;;;;;4973009;28;20062;-67
2021/03/21 02:43:26;;;;;;;33.00;16.70;;;11.00;63.80;;;;;;4973602;28;20069;-68
2021/03/21 02:45:56;;;;;;;35.67;17.77;;;11.10;64.10;;;;;;4973286;28;20074;-67
2021/03/21 02:48:39;;;;;;;38.33;19.02;;;11.10;64.00;;;;;;4973246;28;20050;-69
2021/03/21 02:51:14;;;;;;;40.13;19.65;;;11.10;63.90;;;;;;4988097;28;20061;-68
2021/03/21 02:53:41;;;;;;;37.03;18.58;;;;;;;;;;4992560;28;20822;-69
2021/03/21 02:56:14;;;;;;;35.08;18.27;;;11.10;64.20;;;;;;4956750;28;20042;-70
2021/03/21 02:59:07;;;;;;;34.83;19.08;;;11.00;64.70;;;;;;4979808;28;20145;-69
2021/03/21 03:01:49;;;;;;;41.08;20.90;;;11.00;64.50;;;;;;4991321;28;20485;-68
2021/03/21 03:04:29;;;;;;;41.05;19.88;;;11.10;64.30;;;;;;4992799;28;20141;-69
2021/03/21 03:07:02;;;;;;;39.83;20.48;;;11.10;64.50;;;;;;5077041;28;20110;-70
2021/03/21 03:09:38;;;;;;;42.67;21.15;;;11.00;64.60;;;;;;5093814;28;20458;-68
2021/03/21 03:12:20;;;;;;;38.38;20.60;;;11.00;64.80;;;;;;5094251;28;20047;-69
2021/03/21 03:14:47;;;;;;;42.33;21.90;;;11.00;64.80;;;;;;5094418;28;20510;-69
2021/03/21 03:17:30;;;;;;;42.55;20.98;;;11.00;64.90;;;;;;5067913;28;20032;-69
2021/03/21 03:20:35;;;;;;;43.13;21.15;;;11.10;64.60;;;;;;5065420;28;20045;-70
2021/03/21 03:23:02;;;;;;;44.78;21.90;;;;;;;;;;5066423;28;20571;-67
2021/03/21 03:25:30;;;;;;;;;;;11.00;64.70;;;;;;5079744;28;20090;-67
2021/03/21 03:27:57;;;;;;;38.45;19.95;;;;;;;;;;5076007;28;19924;-69
2021/03/21 03:30:30;;;;;;;38.10;20.88;;;11.20;64.40;;;;;;5093760;28;20036;-68
2021/03/21 03:32:57;;;;;;;39.45;19.92;;;;;;;;;;5093833;28;20069;-70
2021/03/21 03:35:25;;;;;;;43.75;20.92;;;11.10;64.50;;;;;;5058729;28;20044;-69
2021/03/21 03:37:52;;;;;;;39.05;21.08;;;;;;;;;;5043861;28;20114;-69
2021/03/21 03:40:21;;;;;;;41.30;20.65;;;11.20;64.60;;;;;;5060957;28;20044;-69
2021/03/21 03:43:03;;;;;;;38.65;19.98;;;11.20;64.30;;;;;;5059368;28;20044;-69
2021/03/21 03:46:05;;;;;;;39.17;20.20;;;11.30;64.20;;;;;;5083955;28;20040;-69
2021/03/21 03:48:46;;;;;;;33.63;19.23;;;11.20;64.10;;;;;;5065905;28;20094;-70
2021/03/21 03:51:13;;;;;;;37.10;19.13;;;;;;;;;;5059478;28;20064;-69
2021/03/21 03:53:44;;;;;;;35.95;18.98;;;11.40;63.60;;;;;;5055137;28;20102;-69
2021/03/21 03:56:31;;;;;;;42.78;20.05;;;11.50;63.20;;;;;;5033382;28;20045;-68
2021/03/21 03:59:13;;;;;;;39.08;18.77;;;11.60;63.10;;;;;;5063454;28;20101;-69
2021/03/21 04:01:51;;;;;;;35.28;18.70;;;11.60;63.00;;;;;;5093854;28;20089;-69
2021/03/21 04:05:14;;;;;;;32.60;17.25;;;11.60;62.70;;;;;;5093577;28;20089;-67
2021/03/21 04:07:58;;;;;;;34.72;17.75;;;11.60;63.00;;;;;;4933332;29;20055;-69
2021/03/21 04:10:34;;;;;;;37.17;18.10;;;11.50;63.00;;;;;;4933563;29;20063;-68
2021/03/21 04:13:15;;;;;;;34.58;17.02;;;11.60;63.00;;;;;;4933486;29;20079;-69
2021/03/21 04:15:47;;;;;;;36.85;17.33;;;11.50;63.20;;;;;;4922767;29;20052;-68
2021/03/21 04:18:26;;;;;;;34.97;16.42;;;11.50;63.30;;;;;;4914366;29;20396;-67
2021/03/21 04:21:01;;;;;;;33.70;16.38;;;11.50;63.60;;;;;;4914652;29;20052;-67
2021/03/21 04:23:38;;;;;;;41.42;17.38;;;11.50;63.50;;;;;;4913907;29;20068;-68
2021/03/21 04:26:09;;;;;;;37.80;18.23;;;11.60;63.40;;;;;;4925929;29;20056;-67
2021/03/21 04:28:43;;;;;;;40.83;17.67;;;11.60;63.40;;;;;;4933283;29;20111;-69
2021/03/21 04:31:13;;;;;;;37.90;18.30;;;11.50;63.60;;;;;;4932434;29;20064;-68
2021/03/21 04:33:51;;;;;;;44.72;18.88;;;11.60;63.40;;;;;;4899988;29;20055;-68
2021/03/21 04:36:21;;;;;;;;;;;11.70;63.90;;;;;;4925934;29;20068;-68
2021/03/21 04:39:07;;;;;;;43.90;17.85;;;11.60;63.40;;;;;;4900351;29;20378;-68
2021/03/21 04:41:44;;;;;;;44.35;20.30;;;11.60;63.60;;;;;;4898466;29;20146;-69
2021/03/21 04:44:35;;;;;;;52.25;20.48;;;11.40;64.20;;;;;;5021111;28;20538;-69
2021/03/21 04:47:12;;;;;;;49.42;21.15;;;11.50;64.50;;;;;;5069365;28;20044;-69
2021/03/21 04:49:40;;;;;;;47.90;21.00;;;;;;;;;;5055036;28;20403;-69
2021/03/21 04:52:37;;;;;;;50.97;24.15;;;11.20;65.70;;;;;;5073390;28;20051;-69
2021/03/21 04:55:10;;;;;;;62.30;27.40;;;10.90;66.70;;;;;;5070553;28;20072;-67
2021/03/21 04:57:43;;;;;;;62.35;26.05;;;10.80;67.40;;;;;;5089866;28;20072;-68
2021/03/21 05:00:29;;;;;;;66.43;26.90;;;10.90;67.40;;;;;;5075331;28;20070;-68
2021/03/21 05:03:04;;;;;;;75.70;29.73;;;11.00;67.00;;;;;;5068829;28;20048;-69
2021/03/21 05:05:36;;;;;;;55.00;24.73;;;10.90;66.40;;;;;;5076513;28;20047;-68
2021/03/21 05:08:19;;;;;;;66.03;28.85;;;10.90;67.00;;;;;;5092562;28;20067;-68
2021/03/21 05:10:51;;;;;;;64.40;28.30;;;10.90;66.70;;;;;;5077033;28;20070;-69
2021/03/21 05:13:42;;;;;;;65.80;26.90;;;10.90;67.20;;;;;;5059286;28;20122;-69
2021/03/21 05:16:15;;;;;;;60.85;28.33;;;10.80;67.30;;;;;;5066884;28;20056;-69
2021/03/21 05:18:53;;;;;;;65.47;30.63;;;10.90;67.10;;;;;;5096716;28;20040;-67
2021/03/21 05:21:20;;;;;;;58.90;28.10;;;;;;;;;;5068308;28;20047;-69
2021/03/21 05:23:49;;;;;;;62.15;29.38;;;10.70;67.20;;;;;;5096177;28;20036;-70
2021/03/21 05:26:45;;;;;;;64.95;29.60;;;10.90;67.00;;;;;;5068080;28;20036;-68
2021/03/21 05:29:36;;;;;;;58.72;27.33;;;10.90;66.70;;;;;;5093413;28;20056;-68
2021/03/21 05:32:06;;;;;;;60.97;28.33;;;10.90;66.70;;;;;;5097789;28;20085;-68
2021/03/21 05:34:33;;;;;;;59.00;28.63;;;;;;;;;;5098077;28;20039;-67
2021/03/21 05:37:11;;;;;;;58.20;26.35;;;10.90;66.20;;;;;;5093293;28;20044;-69
2021/03/21 05:40:01;;;;;;;51.65;25.58;;;11.00;66.40;;;;;;5070432;28;20087;-68
2021/03/21 05:42:50;;;;;;;51.47;25.65;;;11.10;65.80;;;;;;5060420;28;20068;-68
2021/03/21 05:45:28;;;;;;;48.40;24.00;;;11.20;65.30;;;;;;5047439;28;20059;-69
2021/03/21 05:48:25;;;;;;;54.67;23.55;;;11.20;65.10;;;;;;5053324;28;20120;-70
2021/03/21 05:51:15;;;;;;;43.83;21.42;;;11.20;64.70;;;;;;5071592;28;20040;-68
2021/03/21 05:54:30;;;;;;;42.95;21.02;;;11.10;65.00;;;;;;5080141;28;20063;-68
2021/03/21 05:57:31;;;;;;;41.10;20.48;;;11.20;64.60;;;;;;5009193;28;20424;-69
2021/03/21 06:00:21;;;;;;;38.20;18.85;;;11.20;64.40;;;;;;5009268;28;20053;-69
2021/03/21 06:03:13;;;;;;;40.80;18.17;;;11.20;64.10;;;;;;4931657;29;20059;-71
2021/03/21 06:06:13;;;;;;;37.35;18.70;;;11.30;63.90;;;;;;4875439;29;20125;-69
2021/03/21 06:09:07;;;;;;;36.60;16.02;;;11.30;63.90;;;;;;4859736;29;20068;-68
2021/03/21 06:11:34;;;;;;;36.05;18.05;;;;;;;;;;4865504;29;20065;-69
2021/03/21 06:14:01;;;;;;;29.60;16.40;;;;;;;;;;4857229;29;20616;-69
2021/03/21 06:16:49;;;;;;;35.15;17.95;;;11.60;62.80;;;;;;4841990;29;20089;-69
2021/03/21 06:19:50;;;;;;;34.22;16.33;;;11.60;62.40;;;;;;4856848;29;20053;-68
2021/03/21 06:22:17;;;;;;;29.73;15.23;;;;;;;;;;4846197;29;20045;-70
2021/03/21 06:25:01;;;;;;;;;;;11.50;62.60;;;;;;4858362;29;20053;-70
2021/03/21 06:27:59;;;;;;;31.25;14.98;;;11.50;62.70;;;;;;4841969;29;19981;-72
2021/03/21 06:31:02;;;;;;;26.83;13.57;;;11.40;62.70;;;;;;4857846;29;20394;-68
2021/03/21 06:33:51;;;;;;;29.77;14.27;;;11.20;63.80;;;;;;4887351;29;20047;-70
2021/03/21 06:36:38;;;;;;;37.63;15.00;;;11.10;64.10;;;;;;4913205;29;20124;-70
2021/03/21 06:39:11;;;;;;;30.92;15.02;;;11.20;64.10;;;;;;4925096;28;20047;-67
2021/03/21 06:42:01;;;;;;;31.25;15.43;;;11.00;64.00;;;;;;4994351;28;20043;-70
2021/03/21 06:45:05;;;;;;;30.23;12.05;;;11.00;63.70;;;;;;5053202;28;20095;-69
2021/03/21 06:47:49;;;;;;;22.15;10.80;;;10.90;63.70;;;;;;5070964;28;20044;-69
2021/03/21 06:50:23;;;;;;;30.05;11.10;;;10.90;63.30;;;;;;5072077;28;20082;-69
2021/03/21 06:52:55;;;;;;;24.63;9.10;;;10.80;63.70;;;;;;5071065;28;20433;-71
2021/03/21 06:55:45;;;;;;;25.10;9.35;;;10.90;63.80;;;;;;5055642;28;20399;-69
2021/03/21 06:58:14;;;;;;;26.40;8.98;;;11.10;63.40;;;;;;5040243;28;20047;-70
2021/03/21 07:00:52;;;;;;;22.80;9.00;;;11.20;62.00;;;;;;5057220;28;20044;-70
2021/03/21 07:03:31;;;;;;;16.65;6.72;;;11.20;61.70;;;;;;5074665;28;20560;-70
2021/03/21 07:06:23;;;;;;;16.00;6.15;;;11.30;61.30;;;;;;5075291;28;20533;-71
2021/03/21 07:09:08;;;;;;;14.50;5.78;;;11.30;60.20;;;;;;5070885;28;20045;-70
2021/03/21 07:11:53;;;;;;;15.65;5.18;;;11.20;60.00;;;;;;5078530;28;20059;-69
2021/03/21 07:14:38;;;;;;;17.30;4.43;;;10.80;59.80;;;;;;5094260;28;20126;-70
2021/03/21 07:17:41;;;;;;;22.05;4.80;;;10.60;60.50;;;;;;5075319;28;20444;-71
2021/03/21 07:20:45;;;;;;;16.52;4.65;;;10.60;60.40;;;;;;5076098;28;20044;-72
2021/03/21 07:23:35;;;;;;;18.75;4.45;;;10.90;59.70;;;;;;5076145;28;20133;-72
2021/03/21 07:26:27;;;;;;;13.93;4.65;;;10.60;60.70;;;;;;5082149;28;20064;-71
2021/03/21 07:29:18;;;;;;;10.05;4.00;;;10.90;60.50;;;;;;5068811;28;20052;-72
2021/03/21 07:31:45;;;;;;;21.20;4.57;;;;;;;;;;5087416;28;20040;-71
2021/03/21 07:34:33;;;;;;;11.57;4.55;;;10.90;59.00;;;;;;5076606;28;20041;-72
2021/03/21 07:37:17;;;;;;;14.98;4.18;;;10.60;59.50;;;;;;5079394;28;20040;-73
2021/03/21 07:40:04;;;;;;;13.50;4.05;;;10.80;58.60;;;;;;5075455;28;20048;-72
2021/03/21 07:42:55;;;;;;;12.07;4.95;;;10.90;59.30;;;;;;5075070;28;20044;-71
2021/03/21 07:45:46;;;;;;;14.57;4.97;;;11.00;59.00;;;;;;5078325;28;20417;-71
2021/03/21 07:48:40;;;;;;;12.35;3.67;;;11.10;58.80;;;;;;5071637;28;20063;-71
2021/03/21 07:51:27;;;;;;;17.45;4.03;;;10.90;59.00;;;;;;5076112;28;20135;-71
2021/03/21 07:54:04;;;;;;;17.35;4.55;;;11.20;57.10;;;;;;5079703;28;20060;-72
2021/03/21 07:56:50;;;;;;;20.38;4.43;;;10.70;57.00;;;;;;5076488;28;20086;-72
2021/03/21 07:59:21;;;;;;;14.50;4.28;;;10.40;57.70;;;;;;5088187;28;20055;-72
2021/03/21 08:01:48;;;;;;;17.02;4.15;;;;;;;;;;5076398;28;20075;-73
2021/03/21 08:04:22;;;;;;;15.07;3.60;;;10.60;57.40;;;;;;5058782;28;20040;-71
2021/03/21 08:07:02;;;;;;;17.02;3.92;;;10.90;57.00;;;;;;5071645;28;20101;-74
2021/03/21 08:09:35;;;;;;;14.40;4.07;;;10.80;56.50;;;;;;5072283;28;20055;-71
2021/03/21 08:12:20;;;;;;;24.25;4.32;;;10.50;56.40;;;;;;5084968;28;20446;-73
2021/03/21 08:15:13;;;;;;;20.83;4.32;;;10.10;59.10;;;;;;5089036;28;20036;-72
2021/03/21 08:17:58;;;;;;;15.18;4.57;;;10.00;59.20;;;;;;5082098;28;20107;-73
2021/03/21 08:20:52;;;;;;;15.55;4.13;;;10.30;59.20;;;;;;5074248;28;20037;-73
2021/03/21 08:23:39;;;;;;;14.40;3.67;;;10.70;56.50;;;;;;5015595;28;20057;-73
2021/03/21 08:26:09;;;;;;;18.63;4.25;;;10.80;55.80;;;;;;4996512;28;20451;-71
2021/03/21 08:29:04;;;;;;;18.38;4.05;;;10.50;57.10;;;;;;5015288;28;20049;-72
2021/03/21 08:31:43;;;;;;;15.32;4.30;;;10.70;57.30;;;;;;5014035;28;20057;-73
2021/03/21 08:34:37;;;;;;;16.52;4.25;;;11.00;57.20;;;;;;5013458;28;20174;-72
2021/03/21 08:37:17;;;;;;;24.40;4.60;;;10.80;55.30;;;;;;5012897;28;20034;-71
2021/03/21 08:39:47;;;;;;;18.02;3.75;;;10.40;56.40;;;;;;5013293;28;20082;-71
2021/03/21 08:42:41;;;;;;;16.77;4.13;;;10.60;56.50;;;;;;5015391;28;20056;-72
2021/03/21 08:45:32;;;;;;;19.15;4.18;;;10.50;56.00;;;;;;5012295;28;20050;-73
2021/03/21 08:48:04;;;;;;;19.15;4.25;;;10.80;56.40;;;;;;5012730;28;20058;-73
2021/03/21 08:50:47;;;;;;;11.25;3.88;;;11.20;54.80;;;;;;5015342;28;20559;-74
2021/03/21 08:53:28;;;;;;;13.50;3.55;;;11.30;53.00;;;;;;5012195;28;20057;-74
2021/03/21 08:56:12;;;;;;;13.13;3.67;;;10.70;53.40;;;;;;5014684;28;20049;-72
2021/03/21 08:58:41;;;;;;;17.05;4.05;;;10.20;55.70;;;;;;5011728;28;20050;-70
2021/03/21 09:01:14;;;;;;;10.55;4.03;;;10.50;56.20;;;;;;5067583;28;20052;-72
2021/03/21 09:03:41;;;;;;;15.77;3.92;;;10.50;53.70;;;;;;5074415;28;20067;-70
2021/03/21 09:06:29;;;;;;;23.13;4.53;;;10.40;54.30;;;;;;5071111;28;20097;-71
2021/03/21 09:09:17;;;;;;;14.32;4.28;;;9.90;53.80;;;;;;5084823;28;20043;-69
2021/03/21 09:11:46;;;;;;;23.20;4.93;;;9.70;57.30;;;;;;5091042;28;20043;-71
2021/03/21 09:14:21;;;;;;;26.48;5.80;;;9.90;55.00;;;;;;5091662;28;20063;-73
2021/03/21 09:16:56;;;;;;;24.40;4.85;;;10.30;54.60;;;;;;5090828;28;20052;-71
2021/03/21 09:19:27;;;;;;;32.00;5.25;;;10.20;54.00;;;;;;5091327;28;20068;-73
2021/03/21 09:21:54;;;;;;;16.85;4.57;;;9.80;55.20;;;;;;5091098;28;20047;-71
2021/03/21 09:24:30;;;;;;;23.45;5.35;;;9.80;55.90;;;;;;5091223;28;20142;-73
2021/03/21 09:27:14;;;;;;;25.80;4.88;;;9.70;56.60;;;;;;5090422;28;20075;-71
2021/03/21 09:29:43;;;;;;;33.95;6.75;;;9.40;56.90;;;;;;5091518;28;20044;-73
2021/03/21 09:32:26;;;;;;;21.40;4.60;;;9.40;57.70;;;;;;5067045;28;20055;-72
2021/03/21 09:35:11;;;;;;;21.40;5.55;;;9.60;57.70;;;;;;5067712;28;20044;-72
2021/03/21 09:37:40;;;;;;;22.00;4.67;;;10.50;54.60;;;;;;5064293;28;20059;-72
2021/03/21 09:40:27;;;;;;;26.92;4.97;;;10.60;53.50;;;;;;5086622;28;20044;-72
2021/03/21 09:42:59;;;;;;;26.90;5.25;;;10.50;53.40;;;;;;5062083;28;20292;-70
2021/03/21 09:45:26;;;;;;;25.58;5.93;;;;;;;;;;5088467;28;20043;-72
2021/03/21 09:47:53;;;;;;;22.60;5.35;;;;;;;;;;5056588;28;20498;-70
2021/03/21 09:50:45;;;;;;;31.67;5.95;;;10.60;52.80;;;;;;5090961;28;20051;-71
2021/03/21 09:53:34;;;;;;;31.20;5.00;;;10.90;53.50;;;;;;5091006;28;20036;-73
2021/03/21 09:56:27;;;;;;;27.00;4.85;;;11.00;51.30;;;;;;5063282;28;20039;-73
2021/03/21 09:59:21;;;;;;;22.83;5.32;;;10.30;51.80;;;;;;5090961;28;20105;-72
2021/03/21 10:02:13;;;;;;;25.92;5.70;;;9.70;53.90;;;;;;5090926;28;20101;-72
2021/03/21 10:05:18;;;;;;;33.45;6.00;;;9.70;54.60;;;;;;5090870;28;20444;-72
2021/03/21 10:07:54;;;;;;;23.17;5.82;;;9.70;54.30;;;;;;5081624;28;20061;-72
2021/03/21 10:10:43;;;;;;;27.83;5.72;;;9.90;54.80;;;;;;5090673;28;20539;-70
2021/03/21 10:13:37;;;;;;;29.65;7.03;;;10.30;53.00;;;;;;4985282;28;20078;-72
2021/03/21 10:16:31;;;;;;;27.42;5.85;;;10.70;51.60;;;;;;4982880;28;20057;-71
2021/03/21 10:19:07;;;;;;;29.80;5.72;;;10.30;51.50;;;;;;4987163;28;20058;-70
2021/03/21 10:21:52;;;;;;;25.63;5.60;;;10.40;53.30;;;;;;4989802;28;20050;-72
2021/03/21 10:24:21;;;;;;;37.33;7.30;;;10.50;52.70;;;;;;4991937;28;20460;-73
2021/03/21 10:27:15;;;;;;;28.70;5.57;;;10.80;52.50;;;;;;4990986;28;20048;-71
2021/03/21 10:29:42;;;;;;;23.52;5.60;;;;;;;;;;4976392;28;20042;-72
2021/03/21 10:32:23;;;;;;;28.92;6.60;;;10.30;52.70;;;;;;4968920;28;20049;-70
2021/03/21 10:34:58;;;;;;;27.38;6.35;;;10.00;53.10;;;;;;4976806;28;20105;-71
2021/03/21 10:37:43;;;;;;;22.85;4.78;;;10.30;53.20;;;;;;4985416;28;20047;-71
2021/03/21 10:40:25;;;;;;;30.15;5.53;;;10.60;52.20;;;;;;4988472;28;20046;-71
2021/03/21 10:42:57;;;;;;;29.17;5.82;;;10.30;51.60;;;;;;4974948;28;20059;-73
2021/03/21 10:45:32;;;;;;;32.05;7.30;;;10.00;52.70;;;;;;4991775;28;20097;-70
2021/03/21 10:48:03;;;;;;;34.22;6.50;;;10.00;54.00;;;;;;4992590;28;20050;-71
2021/03/21 10:50:30;;;;;;;37.15;7.10;;;;;;;;;;5056272;28;20533;-72
2021/03/21 10:53:29;;;;;;;43.70;6.75;;;10.50;51.00;;;;;;5060588;28;20078;-71
2021/03/21 10:56:19;;;;;;;31.15;6.00;;;11.10;50.50;;;;;;5095475;28;20055;-72
2021/03/21 10:58:46;;;;;;;35.58;6.13;;;;;;;;;;5094573;28;20062;-72
2021/03/21 11:04:03;;;;;;;35.42;6.22;;;10.70;50.50;;;;;;5075910;28;20055;-72
2021/03/21 11:06:33;;;;;;;27.98;6.72;;;10.40;49.50;;;;;;5093657;28;20040;-73
2021/03/21 11:09:13;;;;;;;39.42;6.45;;;10.10;52.00;;;;;;5089355;28;20051;-72
2021/03/21 11:11:45;;;;;;;33.58;7.97;;;10.30;52.30;;;;;;5095216;28;20501;-70
2021/03/21 11:14:27;;;;;;;25.65;6.10;;;10.60;51.30;;;;;;5077362;28;20047;-70
2021/03/21 11:16:58;;;;;;;35.15;6.63;;;10.50;51.80;;;;;;5093155;28;20414;-72
2021/03/21 11:19:49;;;;;;;39.10;7.78;;;10.30;53.40;;;;;;5092602;28;20040;-72
2021/03/21 11:22:37;;;;;;;32.35;6.10;;;10.60;52.70;;;;;;5074679;28;20048;-71
2021/03/21 11:25:15;;;;;;;28.27;6.15;;;10.70;51.20;;;;;;5093030;28;20028;-71
2021/03/21 11:27:48;;;;;;;33.35;6.60;;;10.70;51.60;;;;;;5074278;28;20044;-71
2021/03/21 11:30:26;;;;;;;26.45;6.90;;;10.80;50.70;;;;;;5074525;28;20044;-70
2021/03/21 11:32:55;;;;;;;34.38;6.03;;;10.70;50.50;;;;;;5093122;28;20036;-73
2021/03/21 11:35:38;;;;;;;38.67;6.80;;;;;;;;;;5093598;28;20036;-72
2021/03/21 11:38:31;;;;;;;34.97;6.72;;;10.00;50.50;;;;;;5061999;28;20090;-71
2021/03/21 11:41:01;;;;;;;27.08;5.60;;;;;;;;;;5069520;28;20055;-71
2021/03/21 11:43:31;;;;;;;31.85;6.90;;;9.80;51.00;;;;;;5093016;28;20052;-71
2021/03/21 11:46:26;;;;;;;26.38;5.75;;;9.50;52.40;;;;;;5092899;28;20117;-70
2021/03/21 11:48:53;;;;;;;37.20;6.75;;;;;;;;;;5065386;28;20101;-71
2021/03/21 11:51:21;;;;;;;29.48;6.30;;;;;;;;;;5064444;28;20067;-71
2021/03/21 11:53:48;;;;;;;24.15;5.45;;;;;;;;;;5088944;28;20051;-72
2021/03/21 11:56:40;;;;;;;25.20;5.70;;;10.20;50.60;;;;;;5074623;28;20047;-70
2021/03/21 11:59:14;;;;;;;30.13;5.70;;;10.20;50.10;;;;;;5092564;28;20035;-71
2021/03/21 12:01:41;;;;;;;33.03;5.43;;;;;;;;;;5092281;28;20448;-70
2021/03/21 12:04:24;;;;;;;26.67;5.13;;;11.20;47.90;;;;;;5067354;28;20036;-70
2021/03/21 12:06:54;;;;;;;36.92;6.20;;;11.70;46.90;;;;;;5063896;28;20048;-70
2021/03/21 12:09:32;;;;;;;29.00;6.13;;;11.80;46.60;;;;;;5090624;28;20054;-70
2021/03/21 12:12:04;;;;;;;25.27;5.50;;;11.70;46.90;;;;;;4366328;28;10000623;-70
2021/03/21 12:14:31;;;;;;;25.63;5.47;;;;;;;;;;5062880;28;20051;-73
2021/03/21 12:17:23;;;;;;;29.90;5.82;;;10.70;49.70;;;;;;5090169;28;20529;-72
2021/03/21 12:19:52;;;;;;;36.28;5.57;;;10.70;49.90;;;;;;5071412;28;20117;-70
2021/03/21 12:22:24;;;;;;;38.67;6.47;;;10.70;49.80;;;;;;5090582;28;20047;-72
2021/03/21 12:24:53;;;;;;;23.23;5.22;;;10.50;50.20;;;;;;5071070;28;20040;-71
2021/03/21 12:27:35;;;;;;;31.42;6.28;;;10.30;51.30;;;;;;5089758;28;20059;-71
2021/03/21 12:30:02;;;;;;;33.08;6.68;;;;;;;;;;5071529;28;20048;-72
2021/03/21 12:32:36;;;;;;;27.17;6.00;;;10.30;50.70;;;;;;5087233;28;20044;-71
2021/03/21 12:35:08;;;;;;;28.17;6.55;;;11.60;50.40;;;;;;5065036;28;20037;-70
2021/03/21 12:37:50;;;;;;;32.95;6.72;;;10.60;49.40;;;;;;5065137;28;20072;-72
2021/03/21 12:40:37;;;;;;;28.13;5.55;;;10.80;50.60;;;;;;5076032;28;20094;-71
2021/03/21 12:43:29;;;;;;;35.58;6.57;;;10.40;50.30;;;;;;5069841;28;20368;-72
2021/03/21 12:46:12;;;;;;;34.13;6.80;;;10.30;50.30;;;;;;5064613;28;20055;-72
2021/03/21 12:48:52;;;;;;;30.60;6.47;;;10.10;50.20;;;;;;5089103;28;20127;-72
2021/03/21 12:51:34;;;;;;;30.25;6.18;;;9.90;51.10;;;;;;5089460;28;20629;-70
2021/03/21 12:54:03;;;;;;;26.40;5.88;;;10.00;50.40;;;;;;5088561;28;20075;-72
2021/03/21 12:56:30;;;;;;;30.63;5.78;;;;;;;;;;5088883;28;20082;-71
2021/03/21 12:58:57;;;;;;;30.55;6.80;;;;;;;;;;5089444;28;20036;-71
2021/03/21 13:01:24;;;;;;;41.33;7.53;;;;;;;;;;5085376;28;20482;-72
2021/03/21 13:03:51;;;;;;;36.08;7.05;;;;;;;;;;5063912;28;20079;-70
2021/03/21 13:06:18;;;;;;;39.80;7.72;;;;;;;;;;5068780;28;20145;-70
2021/03/21 13:08:45;;;;;;;34.63;6.28;;;;;;;;;;5075699;28;20559;-70
2021/03/21 13:11:12;;;;;;;29.60;5.82;;;;;;;;;;5084616;28;20058;-71
2021/03/21 13:13:40;;;;;;;;;;;10.50;49.70;;;;;;5079143;28;20093;-71
2021/03/21 13:16:09;;;;;;;41.38;6.22;;;;;;;;;;5071847;28;19966;-71
2021/03/21 13:18:36;;;;;;;31.42;5.75;;;;;;;;;;5091048;28;20060;-71
2021/03/21 13:21:04;;;;;;;36.10;6.00;;;;;;;;;;5091515;28;20571;-70
2021/03/21 13:23:31;;;;;;;40.30;6.35;;;;;;;;;;5091311;28;20089;-72
2021/03/21 13:25:59;;;;;;;31.15;6.82;;;;;;;;;;5073144;28;20059;-71
2021/03/21 13:28:26;;;;;;;24.02;6.25;;;;;;;;;;5090883;28;20075;-71
2021/03/21 13:30:53;;;;;;;33.30;6.43;;;;;;;;;;5082283;28;20045;-70
2021/03/21 13:33:23;;;;;;;28.58;6.20;;;10.40;47.90;;;;;;5056175;28;20409;-71
2021/03/21 13:35:52;;;;;;;36.50;6.85;;;10.10;49.00;;;;;;5070971;28;20471;-71
2021/03/21 13:38:20;;;;;;;24.17;5.80;;;10.30;50.40;;;;;;5060055;28;20056;-72
2021/03/21 13:40:47;;;;;;;26.58;5.30;;;;;;;;;;5065323;28;20036;-72
2021/03/21 13:43:20;;;;;;;32.33;6.07;;;11.30;47.80;;;;;;5046761;28;20052;-71
2021/03/21 13:45:48;;;;;;;36.28;6.50;;;;;;;;;;5063343;28;20066;-70
2021/03/21 13:48:15;;;;;;;38.08;6.05;;;;;;;;;;5090317;28;20093;-69
2021/03/21 13:50:43;;;;;;;35.33;6.22;;;10.20;50.10;;;;;;5072534;28;20568;-70
2021/03/21 13:53:11;;;;;;;49.05;7.75;;;10.00;49.90;;;;;;5091020;28;20064;-70
2021/03/21 13:55:42;;;;;;;32.75;6.25;;;10.10;50.60;;;;;;5090779;28;20055;-71
2021/03/21 13:58:09;;;;;;;28.85;6.55;;;;;;;;;;5090550;28;20463;-71